Cordova, Alaska
Current Conditions -  °F | °C
As of 2:53 PM on Thursday 18 Dec 2014 (Local Time) from PACV Reporting Station
Broken Clouds Broken Clouds  
Wind Chill: 20°   Ceiling: 25000
Heat Index: 27°   Visibility: 10mi
Dew Point: 24°   Wind: 6mph
Humidity: 89%   Direction: 100°E
Pressure: 29.29"   Gusts: NA
Location:  60.54°N, 145.76°W
Report Text: PACV 182353Z 10005KT 10SM FEW060 BKN250 M03/M04 A2929 RMK AO2 SLP919 I6000 T10281044 11022 21056 57027
Loading
Personal Weather Stations






























Interactive Weather Map New forecast layout! Learn more

10-Day Weather Forecast

Advertisements
Track Severe Weather on mobile